Friday, September 21, 2018, 5:33 PM EDT
Back to Local

KSYR, Syracuse Hancock International Airport

Location: Syracuse, NY, United States Lat: 43.117
Local Time: 5:33 PM EDT (21:33 GMT) Lon: -76.1
Time Zone: US/Eastern Elev: 410 ft

Show me the last for .
Show Decoded

2018-09-21 16:54 METAR KSYR 212054Z 19021G34KT 10SM FEW030 25/21 A2978 RMK AO2 PK WND 17034/2048
                 SLP078 T02500206 58035 =
2018-09-21 15:54 METAR KSYR 211954Z 19017G30KT 10SM FEW030 FEW100 26/21 A2982 RMK AO2 PK WND
                 18031/1928 SLP092 T02560206 =
2018-09-21 14:54 METAR KSYR 211854Z 19021G31KT 10SM FEW030 SCT150 26/21 A2985 RMK AO2 PK WND
                 19035/1806 SLP103 T02560206 =
2018-09-21 13:54 METAR KSYR 211754Z 19015G36KT 10SM SCT030 SCT150 26/21 A2988 RMK AO2 PK WND
                 20036/1750 SLP113 T02610206 10261 20211 58031 =
2018-09-21 12:54 METAR KSYR 211654Z 19019G27KT 10SM SCT028 BKN034 BKN070 26/21 A2992 RMK AO2 PK
                 WND 20027/1604 SLP125 T02560206 =
2018-09-21 11:54 METAR KSYR 211554Z 18017G25KT 10SM SCT025 BKN070 BKN180 24/20 A2995 RMK AO2 PK
                 WND 18030/1518 SLP135 T02390200 =
2018-09-21 10:54 METAR KSYR 211454Z 19014G25KT 10SM FEW025 SCT070 BKN090 BKN180 23/19 A2997 RMK
                 AO2 PK WND 16026/1355 SLP145 T02330194 56015 =
2018-09-21 09:54 METAR KSYR 211354Z 19015G30KT 10SM FEW025 SCT070 BKN090 BKN180 23/19 A2999 RMK
                 AO2 PK WND 18030/1341 SLP150 T02280194 =
2018-09-21 08:54 METAR KSYR 211254Z 18020G28KT 10SM FEW025 BKN070 BKN090 22/19 A2999 RMK AO2 PK
                 WND 19028/1254 SLP150 T02220194 =
2018-09-21 07:54 METAR KSYR 211154Z 17012G22KT 10SM FEW025 BKN070 BKN090 21/19 A3002 RMK AO2
                 SLP161 60000 T02110189 10211 20189 58006 =
2018-09-21 06:54 METAR KSYR 211054Z 18014G21KT 10SM FEW020 SCT080 BKN095 21/19 A3003 RMK AO2
                 SLP164 T02110189 =
2018-09-21 05:54 METAR KSYR 210954Z 19010G21KT 10SM FEW023 BKN090 21/19 A3004 RMK AO2 SLP166
                 T02060189 =
2018-09-21 04:54 METAR KSYR 210854Z 17012G19KT 10SM FEW023 OVC080 21/19 A3004 RMK AO2 SLP166
                 60000 T02060189 56016 =
2018-09-21 04:15 METAR KSYR 210815Z 16009KT 10SM SCT024 OVC070 21/19 A3005 RMK AO2 T02060189 =
2018-09-21 03:54 METAR KSYR 210754Z 15006KT 10SM BKN024 OVC065 20/19 A3005 RMK AO2 RAE10 SLP170
                 P0000 T02000189 =
2018-09-21 02:54 METAR KSYR 210654Z 15009KT 9SM -RA FEW024 BKN070 OVC090 20/18 A3007 RMK AO2
                 RAB41 SLP176 P0000 T02000183 =
2018-09-21 01:54 METAR KSYR 210554Z 13006KT 10SM BKN070 19/18 A3008 RMK AO2 SLP183 T01890183
                 10194 20178 58020 =
2018-09-21 00:54 METAR KSYR 210454Z 10007KT 10SM FEW045 BKN075 OVC120 18/18 A3012 RMK AO2 SLP194
                 BKN V OVC T01830178 402170094 =
2018-09-20 23:54 METAR KSYR 210354Z 08007KT 10SM SCT046 OVC100 18/17 A3012 RMK AO2 SLP195
                 T01780172 =
2018-09-20 22:54 METAR KSYR 210254Z 08007KT 10SM SCT042 BKN100 18/17 A3014 RMK AO2 SLP204
                 T01780167 58000 =
2018-09-20 21:54 METAR KSYR 210154Z 09007KT 10SM BKN046 OVC080 18/17 A3015 RMK AO2 SLP208
                 T01780167 =
2018-09-20 20:54 METAR KSYR 210054Z 08007KT 10SM BKN080 OVC120 18/17 A3015 RMK AO2 SLP208
                 T01830167 =
2018-09-20 19:54 METAR KSYR 202354Z 06006KT 10SM BKN085 OVC150 19/17 A3014 RMK AO2 SLP204
                 T01890167 10217 20183 56005 =
2018-09-20 18:54 METAR KSYR 202254Z 04004KT 10SM SCT100 BKN160 OVC200 19/16 A3015 RMK AO2 SLP207
                 T01890161 =
2018-09-20 17:54 METAR KSYR 202154Z 05006KT 10SM BKN160 OVC200 20/16 A3015 RMK AO2 SLP206
                 T02000156 =

Support USWX by starting your Amazon purchase here.